Time,TemperatureF,DewpointF,PressureIn,WindDirection,WindDirectionDegrees,WindSpeedMPH,WindSpeedGustMPH,Humidity,HourlyPrecipIn,Conditions,Clouds,dailyrainin,SoftwareType,DateUTC
2013-07-25 00:01:00,74.3,67.6,29.57,North,-999,-999.0,-999.0,80,-99.99,,,-99.99,meteohub,2013-07-25 04:01:00,
2013-07-25 00:02:00,74.3,67.6,29.57,North,-999,-999.0,-999.0,80,-99.99,,,-99.99,meteohub,2013-07-25 04:02:00,
2013-07-25 00:03:00,74.3,67.6,29.57,North,-999,-999.0,-999.0,80,-99.99,,,-99.99,meteohub,2013-07-25 04:03:00,
2013-07-25 00:08:00,74.1,67.6,29.54,North,-999,-999.0,-999.0,80,-99.99,,,-99.99,meteohub,2013-07-25 04:08:00,
2013-07-25 00:13:00,74.1,67.6,29.54,North,-999,-999.0,-999.0,80,-99.99,,,-99.99,meteohub,2013-07-25 04:13:00,
2013-07-25 00:18:00,73.9,67.8,29.57,North,-999,-999.0,-999.0,81,-99.99,,,-99.99,meteohub,2013-07-25 04:18:00,
2013-07-25 00:24:00,73.9,68.2,29.57,North,-999,-999.0,-999.0,82,-99.99,,,-99.99,meteohub,2013-07-25 04:24:00,
2013-07-25 00:29:00,73.9,68.4,29.57,North,-999,-999.0,-999.0,83,-99.99,,,-99.99,meteohub,2013-07-25 04:29:00,
2013-07-25 00:34:00,73.9,68.4,29.57,North,-999,-999.0,-999.0,83,-99.99,,,-99.99,meteohub,2013-07-25 04:34:00,
2013-07-25 00:39:00,73.9,68.7,29.57,North,-999,-999.0,-999.0,84,-99.99,,,-99.99,meteohub,2013-07-25 04:39:00,
2013-07-25 00:45:00,73.9,69.1,29.57,North,-999,-999.0,-999.0,85,-99.99,,,-99.99,meteohub,2013-07-25 04:45:00,
2013-07-25 00:50:00,73.9,69.4,29.57,North,-999,-999.0,-999.0,86,-99.99,,,-99.99,meteohub,2013-07-25 04:50:00,
2013-07-25 00:55:00,73.8,69.3,29.57,North,-999,-999.0,-999.0,86,-99.99,,,-99.99,meteohub,2013-07-25 04:55:00,
2013-07-25 01:00:00,73.8,69.3,29.57,North,-999,-999.0,-999.0,86,-99.99,,,-99.99,meteohub,2013-07-25 05:00:00,
2013-07-25 01:05:00,73.8,69.3,29.57,North,-999,-999.0,-999.0,86,-99.99,,,-99.99,meteohub,2013-07-25 05:05:00,
2013-07-25 01:10:00,73.8,69.3,29.57,North,-999,-999.0,-999.0,86,-99.99,,,-99.99,meteohub,2013-07-25 05:10:00,
2013-07-25 01:16:00,73.8,69.3,29.57,North,-999,-999.0,-999.0,86,-99.99,,,-99.99,meteohub,2013-07-25 05:16:00,
2013-07-25 01:21:00,73.6,69.1,29.57,North,-999,-999.0,-999.0,86,-99.99,,,-99.99,meteohub,2013-07-25 05:21:00,
2013-07-25 01:26:00,73.4,69.3,29.57,North,-999,-999.0,-999.0,87,-99.99,,,-99.99,meteohub,2013-07-25 05:26:00,
2013-07-25 01:31:00,73.6,69.4,29.57,North,-999,-999.0,-999.0,87,-99.99,,,-99.99,meteohub,2013-07-25 05:31:00,
2013-07-25 01:36:00,73.4,69.3,29.57,North,-999,-999.0,-999.0,87,-99.99,,,-99.99,meteohub,2013-07-25 05:36:00,
2013-07-25 01:41:00,73.4,69.3,29.57,North,-999,-999.0,-999.0,87,-99.99,,,-99.99,meteohub,2013-07-25 05:41:00,
2013-07-25 01:47:00,73.4,69.3,29.57,North,-999,-999.0,-999.0,87,-99.99,,,-99.99,meteohub,2013-07-25 05:47:00,
2013-07-25 01:52:00,73.4,69.3,29.57,North,-999,-999.0,-999.0,87,-99.99,,,-99.99,meteohub,2013-07-25 05:52:00,
2013-07-25 01:57:00,73.2,69.4,29.57,North,-999,-999.0,-999.0,88,-99.99,,,-99.99,meteohub,2013-07-25 05:57:00,
2013-07-25 02:02:00,73.2,69.4,29.57,North,-999,-999.0,-999.0,88,-99.99,,,-99.99,meteohub,2013-07-25 06:02:00,
2013-07-25 02:07:00,73.2,69.4,29.57,North,-999,-999.0,-999.0,88,-99.99,,,-99.99,meteohub,2013-07-25 06:07:00,
2013-07-25 02:12:00,73.2,69.4,29.57,North,-999,-999.0,-999.0,88,-99.99,,,-99.99,meteohub,2013-07-25 06:12:00,
2013-07-25 02:17:00,73.2,69.4,29.57,North,-999,-999.0,-999.0,88,-99.99,,,-99.99,meteohub,2013-07-25 06:17:00,
2013-07-25 02:22:00,73.2,69.8,29.54,North,-999,-999.0,-999.0,89,-99.99,,,-99.99,meteohub,2013-07-25 06:22:00,
2013-07-25 02:28:00,73.2,69.8,29.54,North,-999,-999.0,-999.0,89,-99.99,,,-99.99,meteohub,2013-07-25 06:28:00,
2013-07-25 02:33:00,73.0,69.6,29.54,North,-999,-999.0,-999.0,89,-99.99,,,-99.99,meteohub,2013-07-25 06:33:00,
2013-07-25 02:38:00,73.0,69.6,29.54,North,-999,-999.0,-999.0,89,-99.99,,,-99.99,meteohub,2013-07-25 06:38:00,
2013-07-25 02:43:00,73.0,69.6,29.54,North,-999,-999.0,-999.0,89,-99.99,,,-99.99,meteohub,2013-07-25 06:43:00,
2013-07-25 02:48:00,72.9,69.1,29.54,North,-999,-999.0,-999.0,88,-99.99,,,-99.99,meteohub,2013-07-25 06:48:00,
2013-07-25 02:54:00,72.7,68.9,29.54,North,-999,-999.0,-999.0,88,-99.99,,,-99.99,meteohub,2013-07-25 06:54:00,
2013-07-25 02:59:00,72.7,68.9,29.54,North,-999,-999.0,-999.0,88,-99.99,,,-99.99,meteohub,2013-07-25 06:59:00,
2013-07-25 03:04:00,72.3,68.5,29.54,North,-999,-999.0,-999.0,88,-99.99,,,-99.99,meteohub,2013-07-25 07:04:00,
2013-07-25 03:09:00,72.0,67.8,29.54,North,-999,-999.0,-999.0,87,-99.99,,,-99.99,meteohub,2013-07-25 07:09:00,
2013-07-25 03:14:00,71.8,67.6,29.54,North,-999,-999.0,-999.0,87,-99.99,,,-99.99,meteohub,2013-07-25 07:14:00,
2013-07-25 03:19:00,71.6,67.5,29.54,North,-999,-999.0,-999.0,87,-99.99,,,-99.99,meteohub,2013-07-25 07:19:00,
2013-07-25 03:25:00,71.4,67.3,29.54,North,-999,-999.0,-999.0,87,-99.99,,,-99.99,meteohub,2013-07-25 07:25:00,
2013-07-25 03:30:00,71.4,67.6,29.54,North,-999,-999.0,-999.0,88,-99.99,,,-99.99,meteohub,2013-07-25 07:30:00,
2013-07-25 03:35:00,71.4,67.6,29.54,North,-999,-999.0,-999.0,88,-99.99,,,-99.99,meteohub,2013-07-25 07:35:00,
2013-07-25 03:40:00,71.2,67.5,29.54,North,-999,-999.0,-999.0,88,-99.99,,,-99.99,meteohub,2013-07-25 07:40:00,
2013-07-25 03:45:00,71.2,67.8,29.54,North,-999,-999.0,-999.0,89,-99.99,,,-99.99,meteohub,2013-07-25 07:45:00,
2013-07-25 03:50:00,71.2,67.8,29.54,North,-999,-999.0,-999.0,89,-99.99,,,-99.99,meteohub,2013-07-25 07:50:00,
2013-07-25 03:55:00,71.2,67.8,29.54,North,-999,-999.0,-999.0,89,-99.99,,,-99.99,meteohub,2013-07-25 07:55:00,
2013-07-25 04:00:00,71.2,67.8,29.54,North,-999,-999.0,-999.0,89,-99.99,,,-99.99,meteohub,2013-07-25 08:00:00,
2013-07-25 04:05:00,71.2,68.2,29.54,North,-999,-999.0,-999.0,90,-99.99,,,-99.99,meteohub,2013-07-25 08:05:00,
2013-07-25 04:11:00,71.2,68.2,29.54,North,-999,-999.0,-999.0,90,-99.99,,,-99.99,meteohub,2013-07-25 08:11:00,
2013-07-25 04:16:00,71.2,68.2,29.54,North,-999,-999.0,-999.0,90,-99.99,,,-99.99,meteohub,2013-07-25 08:16:00,
2013-07-25 04:21:00,71.4,68.4,29.54,North,-999,-999.0,-999.0,90,-99.99,,,-99.99,meteohub,2013-07-25 08:21:00,
2013-07-25 04:26:00,71.4,68.4,29.54,North,-999,-999.0,-999.0,90,-99.99,,,-99.99,meteohub,2013-07-25 08:26:00,
2013-07-25 04:31:00,71.4,68.4,29.54,North,-999,-999.0,-999.0,90,-99.99,,,-99.99,meteohub,2013-07-25 08:31:00,
2013-07-25 04:36:00,71.4,68.4,29.54,North,-999,-999.0,-999.0,90,-99.99,,,-99.99,meteohub,2013-07-25 08:36:00,
2013-07-25 04:41:00,71.4,68.4,29.54,North,-999,-999.0,-999.0,90,-99.99,,,-99.99,meteohub,2013-07-25 08:41:00,
2013-07-25 04:47:00,71.4,68.4,29.54,North,-999,-999.0,-999.0,90,-99.99,,,-99.99,meteohub,2013-07-25 08:47:00,
2013-07-25 04:52:00,71.4,68.4,29.54,North,-999,-999.0,-999.0,90,-99.99,,,-99.99,meteohub,2013-07-25 08:52:00,
2013-07-25 04:57:00,71.4,68.4,29.54,North,-999,-999.0,-999.0,90,-99.99,,,-99.99,meteohub,2013-07-25 08:57:00,
2013-07-25 05:02:00,71.4,68.4,29.54,North,-999,-999.0,-999.0,90,-99.99,,,-99.99,meteohub,2013-07-25 09:02:00,
2013-07-25 05:07:00,71.4,68.4,29.54,North,-999,-999.0,-999.0,90,-99.99,,,-99.99,meteohub,2013-07-25 09:07:00,
2013-07-25 05:12:00,71.4,68.4,29.54,North,-999,-999.0,-999.0,90,-99.99,,,-99.99,meteohub,2013-07-25 09:12:00,
2013-07-25 05:17:00,71.4,68.4,29.54,North,-999,-999.0,-999.0,90,-99.99,,,-99.99,meteohub,2013-07-25 09:17:00,
2013-07-25 05:22:00,71.4,68.4,29.54,North,-999,-999.0,-999.0,90,-99.99,,,-99.99,meteohub,2013-07-25 09:22:00,
2013-07-25 05:27:00,71.4,68.4,29.54,North,-999,-999.0,-999.0,90,-99.99,,,-99.99,meteohub,2013-07-25 09:27:00,
2013-07-25 05:32:00,71.2,68.2,29.54,North,-999,-999.0,-999.0,90,-99.99,,,-99.99,meteohub,2013-07-25 09:32:00,
2013-07-25 05:37:00,71.2,68.2,29.54,North,-999,-999.0,-999.0,90,-99.99,,,-99.99,meteohub,2013-07-25 09:37:00,
2013-07-25 05:42:00,71.2,68.2,29.54,North,-999,-999.0,-999.0,90,-99.99,,,-99.99,meteohub,2013-07-25 09:42:00,
2013-07-25 05:47:00,71.1,68.0,29.54,North,-999,-999.0,-999.0,90,-99.99,,,-99.99,meteohub,2013-07-25 09:47:00,
2013-07-25 05:52:00,71.1,68.0,29.57,North,-999,-999.0,-999.0,90,-99.99,,,-99.99,meteohub,2013-07-25 09:52:00,
2013-07-25 05:57:00,71.1,68.0,29.57,North,-999,-999.0,-999.0,90,-99.99,,,-99.99,meteohub,2013-07-25 09:57:00,
2013-07-25 06:02:00,71.1,68.0,29.57,North,-999,-999.0,-999.0,90,-99.99,,,-99.99,meteohub,2013-07-25 10:02:00,
2013-07-25 06:07:00,70.9,67.8,29.57,North,-999,-999.0,-999.0,90,-99.99,,,-99.99,meteohub,2013-07-25 10:07:00,
2013-07-25 06:12:00,70.9,67.8,29.57,North,-999,-999.0,-999.0,90,-99.99,,,-99.99,meteohub,2013-07-25 10:12:00,
2013-07-25 06:17:00,70.9,67.8,29.57,North,-999,-999.0,-999.0,90,-99.99,,,-99.99,meteohub,2013-07-25 10:17:00,
2013-07-25 06:22:00,70.9,67.8,29.57,North,-999,-999.0,-999.0,90,-99.99,,,-99.99,meteohub,2013-07-25 10:22:00,
2013-07-25 06:27:00,70.9,67.8,29.57,North,-999,-999.0,-999.0,90,-99.99,,,-99.99,meteohub,2013-07-25 10:27:00,
2013-07-25 06:32:00,70.9,67.8,29.57,North,-999,-999.0,-999.0,90,-99.99,,,-99.99,meteohub,2013-07-25 10:32:00,
2013-07-25 06:37:00,70.9,67.8,29.57,North,-999,-999.0,-999.0,90,-99.99,,,-99.99,meteohub,2013-07-25 10:37:00,
2013-07-25 06:42:00,70.7,67.6,29.57,North,-999,-999.0,-999.0,90,-99.99,,,-99.99,meteohub,2013-07-25 10:42:00,
2013-07-25 06:47:00,70.7,67.6,29.57,North,-999,-999.0,-999.0,90,-99.99,,,-99.99,meteohub,2013-07-25 10:47:00,
2013-07-25 06:52:00,70.7,67.6,29.57,North,-999,-999.0,-999.0,90,-99.99,,,-99.99,meteohub,2013-07-25 10:52:00,
2013-07-25 06:57:00,70.5,67.5,29.57,North,-999,-999.0,-999.0,90,-99.99,,,-99.99,meteohub,2013-07-25 10:57:00,
2013-07-25 07:03:00,70.5,67.5,29.57,North,-999,-999.0,-999.0,90,-99.99,,,-99.99,meteohub,2013-07-25 11:03:00,
2013-07-25 07:08:00,70.5,67.5,29.57,North,-999,-999.0,-999.0,90,-99.99,,,-99.99,meteohub,2013-07-25 11:08:00,
2013-07-25 07:13:00,70.5,67.1,29.57,North,-999,-999.0,-999.0,89,-99.99,,,-99.99,meteohub,2013-07-25 11:13:00,
2013-07-25 07:18:00,70.3,66.9,29.57,North,-999,-999.0,-999.0,89,-99.99,,,-99.99,meteohub,2013-07-25 11:18:00,
2013-07-25 07:23:00,70.3,66.9,29.57,North,-999,-999.0,-999.0,89,-99.99,,,-99.99,meteohub,2013-07-25 11:23:00,
2013-07-25 07:28:00,70.3,66.9,29.57,North,-999,-999.0,-999.0,89,-99.99,,,-99.99,meteohub,2013-07-25 11:28:00,
2013-07-25 07:34:00,70.3,66.9,29.57,North,-999,-999.0,-999.0,89,-99.99,,,-99.99,meteohub,2013-07-25 11:34:00,
2013-07-25 07:39:00,70.3,66.9,29.57,North,-999,-999.0,-999.0,89,-99.99,,,-99.99,meteohub,2013-07-25 11:39:00,
2013-07-25 07:44:00,70.3,66.9,29.57,North,-999,-999.0,-999.0,89,-99.99,,,-99.99,meteohub,2013-07-25 11:44:00,
2013-07-25 07:49:00,70.3,66.9,29.60,North,-999,-999.0,-999.0,89,-99.99,,,-99.99,meteohub,2013-07-25 11:49:00,
2013-07-25 07:54:00,70.2,66.4,29.60,North,-999,-999.0,-999.0,88,-99.99,,,-99.99,meteohub,2013-07-25 11:54:00,
2013-07-25 08:00:00,70.2,66.4,29.60,North,-999,-999.0,-999.0,88,-99.99,,,-99.99,meteohub,2013-07-25 12:00:00,
2013-07-25 08:05:00,70.2,66.4,29.60,North,-999,-999.0,-999.0,88,-99.99,,,-99.99,meteohub,2013-07-25 12:05:00,
2013-07-25 08:10:00,70.2,66.0,29.60,North,-999,-999.0,-999.0,87,-99.99,,,-99.99,meteohub,2013-07-25 12:10:00,
2013-07-25 08:15:00,70.3,66.2,29.60,North,-999,-999.0,-999.0,87,-99.99,,,-99.99,meteohub,2013-07-25 12:15:00,
2013-07-25 08:20:00,70.2,66.0,29.63,North,-999,-999.0,-999.0,87,-99.99,,,-99.99,meteohub,2013-07-25 12:20:00,
2013-07-25 08:25:00,70.2,66.0,29.63,North,-999,-999.0,-999.0,87,-99.99,,,-99.99,meteohub,2013-07-25 12:25:00,
2013-07-25 08:31:00,70.3,66.0,29.63,North,-999,-999.0,-999.0,86,-99.99,,,-99.99,meteohub,2013-07-25 12:31:00,
2013-07-25 08:36:00,70.3,66.2,29.60,North,-999,-999.0,-999.0,87,-99.99,,,-99.99,meteohub,2013-07-25 12:36:00,
2013-07-25 08:41:00,70.3,66.0,29.60,North,-999,-999.0,-999.0,86,-99.99,,,-99.99,meteohub,2013-07-25 12:41:00,
2013-07-25 08:46:00,70.3,66.0,29.60,North,-999,-999.0,-999.0,86,-99.99,,,-99.99,meteohub,2013-07-25 12:46:00,
2013-07-25 08:51:00,70.5,66.2,29.63,North,-999,-999.0,-999.0,86,-99.99,,,-99.99,meteohub,2013-07-25 12:51:00,
2013-07-25 08:56:00,70.5,66.2,29.63,North,-999,-999.0,-999.0,86,-99.99,,,-99.99,meteohub,2013-07-25 12:56:00,
2013-07-25 09:02:00,70.7,66.0,29.63,North,-999,-999.0,-999.0,85,-99.99,,,-99.99,meteohub,2013-07-25 13:02:00,
2013-07-25 09:07:00,70.7,66.0,29.63,North,-999,-999.0,-999.0,85,-99.99,,,-99.99,meteohub,2013-07-25 13:07:00,
2013-07-25 09:12:00,70.9,66.2,29.63,North,-999,-999.0,-999.0,85,-99.99,,,-99.99,meteohub,2013-07-25 13:12:00,
2013-07-25 09:17:00,70.9,66.2,29.63,North,-999,-999.0,-999.0,85,-99.99,,,-99.99,meteohub,2013-07-25 13:17:00,
2013-07-25 09:22:00,70.9,66.2,29.63,North,-999,-999.0,-999.0,85,-99.99,,,-99.99,meteohub,2013-07-25 13:22:00,
2013-07-25 09:27:00,70.9,66.2,29.63,North,-999,-999.0,-999.0,85,-99.99,,,-99.99,meteohub,2013-07-25 13:27:00,
2013-07-25 09:32:00,70.9,66.2,29.63,North,-999,-999.0,-999.0,85,-99.99,,,-99.99,meteohub,2013-07-25 13:32:00,
2013-07-25 09:37:00,70.9,66.2,29.63,North,-999,-999.0,-999.0,85,-99.99,,,-99.99,meteohub,2013-07-25 13:37:00,
2013-07-25 09:42:00,70.9,65.8,29.63,North,-999,-999.0,-999.0,84,-99.99,,,-99.99,meteohub,2013-07-25 13:42:00,
2013-07-25 09:47:00,70.9,65.8,29.63,North,-999,-999.0,-999.0,84,-99.99,,,-99.99,meteohub,2013-07-25 13:47:00,
2013-07-25 09:52:00,70.9,65.8,29.63,North,-999,-999.0,-999.0,84,-99.99,,,-99.99,meteohub,2013-07-25 13:52:00,
2013-07-25 09:57:00,70.9,65.8,29.63,North,-999,-999.0,-999.0,84,-99.99,,,-99.99,meteohub,2013-07-25 13:57:00,
2013-07-25 10:03:00,71.1,66.0,29.63,North,-999,-999.0,-999.0,84,-99.99,,,-99.99,meteohub,2013-07-25 14:03:00,
2013-07-25 10:08:00,71.1,66.0,29.63,North,-999,-999.0,-999.0,84,-99.99,,,-99.99,meteohub,2013-07-25 14:08:00,
2013-07-25 10:13:00,71.1,66.0,29.63,North,-999,-999.0,-999.0,84,-99.99,,,-99.99,meteohub,2013-07-25 14:13:00,
2013-07-25 10:18:00,71.1,66.0,29.63,North,-999,-999.0,-999.0,84,-99.99,,,-99.99,meteohub,2013-07-25 14:18:00,
2013-07-25 10:23:00,70.9,65.5,29.66,North,-999,-999.0,-999.0,83,-99.99,,,-99.99,meteohub,2013-07-25 14:23:00,
2013-07-25 10:28:00,70.9,65.5,29.66,North,-999,-999.0,-999.0,83,-99.99,,,-99.99,meteohub,2013-07-25 14:28:00,
2013-07-25 10:34:00,71.1,66.0,29.66,North,-999,-999.0,-999.0,84,-99.99,,,-99.99,meteohub,2013-07-25 14:34:00,
2013-07-25 10:39:00,71.2,66.2,29.66,North,-999,-999.0,-999.0,84,-99.99,,,-99.99,meteohub,2013-07-25 14:39:00,
2013-07-25 10:44:00,71.4,66.0,29.66,North,-999,-999.0,-999.0,83,-99.99,,,-99.99,meteohub,2013-07-25 14:44:00,
2013-07-25 10:49:00,71.6,66.2,29.66,North,-999,-999.0,-999.0,83,-99.99,,,-99.99,meteohub,2013-07-25 14:49:00,
2013-07-25 10:54:00,71.8,66.0,29.66,North,-999,-999.0,-999.0,82,-99.99,,,-99.99,meteohub,2013-07-25 14:54:00,
2013-07-25 10:59:00,71.8,66.0,29.66,North,-999,-999.0,-999.0,82,-99.99,,,-99.99,meteohub,2013-07-25 14:59:00,
2013-07-25 11:05:00,72.0,66.2,29.66,North,-999,-999.0,-999.0,82,-99.99,,,-99.99,meteohub,2013-07-25 15:05:00,
2013-07-25 11:10:00,72.1,66.4,29.66,North,-999,-999.0,-999.0,82,-99.99,,,-99.99,meteohub,2013-07-25 15:10:00,
2013-07-25 11:15:00,72.3,66.2,29.66,North,-999,-999.0,-999.0,81,-99.99,,,-99.99,meteohub,2013-07-25 15:15:00,
2013-07-25 11:20:00,72.5,66.4,29.66,North,-999,-999.0,-999.0,81,-99.99,,,-99.99,meteohub,2013-07-25 15:20:00,
2013-07-25 11:25:00,72.7,66.6,29.66,North,-999,-999.0,-999.0,81,-99.99,,,-99.99,meteohub,2013-07-25 15:25:00,
2013-07-25 11:30:00,72.9,66.7,29.66,North,-999,-999.0,-999.0,81,-99.99,,,-99.99,meteohub,2013-07-25 15:30:00,
2013-07-25 11:35:00,73.0,66.9,29.66,North,-999,-999.0,-999.0,81,-99.99,,,-99.99,meteohub,2013-07-25 15:35:00,
2013-07-25 11:41:00,73.0,66.6,29.66,North,-999,-999.0,-999.0,80,-99.99,,,-99.99,meteohub,2013-07-25 15:41:00,
2013-07-25 11:46:00,73.2,66.7,29.66,North,-999,-999.0,-999.0,80,-99.99,,,-99.99,meteohub,2013-07-25 15:46:00,
2013-07-25 11:51:00,73.4,66.6,29.66,North,-999,-999.0,-999.0,79,-99.99,,,-99.99,meteohub,2013-07-25 15:51:00,
2013-07-25 11:56:00,73.8,67.3,29.66,North,-999,-999.0,-999.0,80,-99.99,,,-99.99,meteohub,2013-07-25 15:56:00,
2013-07-25 12:02:00,73.9,67.1,29.66,North,-999,-999.0,-999.0,79,-99.99,,,-99.99,meteohub,2013-07-25 16:02:00,
2013-07-25 12:07:00,74.3,67.3,29.66,North,-999,-999.0,-999.0,79,-99.99,,,-99.99,meteohub,2013-07-25 16:07:00,
2013-07-25 12:12:00,74.5,67.1,29.66,North,-999,-999.0,-999.0,78,-99.99,,,-99.99,meteohub,2013-07-25 16:12:00,
2013-07-25 12:17:00,74.5,67.1,29.66,North,-999,-999.0,-999.0,78,-99.99,,,-99.99,meteohub,2013-07-25 16:17:00,
2013-07-25 12:22:00,74.7,67.3,29.66,North,-999,-999.0,-999.0,78,-99.99,,,-99.99,meteohub,2013-07-25 16:22:00,
2013-07-25 12:27:00,74.7,67.3,29.66,North,-999,-999.0,-999.0,78,-99.99,,,-99.99,meteohub,2013-07-25 16:27:00,
2013-07-25 12:32:00,74.8,67.1,29.66,North,-999,-999.0,-999.0,77,-99.99,,,-99.99,meteohub,2013-07-25 16:32:00,
2013-07-25 12:37:00,75.0,67.3,29.69,North,-999,-999.0,-999.0,77,-99.99,,,-99.99,meteohub,2013-07-25 16:37:00,
2013-07-25 12:43:00,75.0,67.3,29.69,North,-999,-999.0,-999.0,77,-99.99,,,-99.99,meteohub,2013-07-25 16:43:00,
2013-07-25 12:48:00,75.4,66.9,29.69,North,-999,-999.0,-999.0,75,-99.99,,,-99.99,meteohub,2013-07-25 16:48:00,
2013-07-25 12:53:00,75.7,67.6,29.66,North,-999,-999.0,-999.0,76,-99.99,,,-99.99,meteohub,2013-07-25 16:53:00,
2013-07-25 12:58:00,76.1,67.6,29.66,North,-999,-999.0,-999.0,75,-99.99,,,-99.99,meteohub,2013-07-25 16:58:00,
2013-07-25 13:03:00,76.6,68.2,29.66,North,-999,-999.0,-999.0,75,-99.99,,,-99.99,meteohub,2013-07-25 17:03:00,
2013-07-25 13:08:00,76.6,67.6,29.66,North,-999,-999.0,-999.0,74,-99.99,,,-99.99,meteohub,2013-07-25 17:08:00,
2013-07-25 13:13:00,76.6,67.6,29.66,North,-999,-999.0,-999.0,74,-99.99,,,-99.99,meteohub,2013-07-25 17:13:00,
2013-07-25 13:19:00,76.3,66.2,29.66,North,-999,-999.0,-999.0,71,-99.99,,,-99.99,meteohub,2013-07-25 17:19:00,
2013-07-25 13:24:00,75.9,66.6,29.66,North,-999,-999.0,-999.0,73,-99.99,,,-99.99,meteohub,2013-07-25 17:24:00,
2013-07-25 13:29:00,75.7,66.4,29.66,North,-999,-999.0,-999.0,73,-99.99,,,-99.99,meteohub,2013-07-25 17:29:00,
2013-07-25 13:34:00,75.7,66.4,29.69,North,-999,-999.0,-999.0,73,-99.99,,,-99.99,meteohub,2013-07-25 17:34:00,
2013-07-25 13:39:00,75.6,66.4,29.69,North,-999,-999.0,-999.0,73,-99.99,,,-99.99,meteohub,2013-07-25 17:39:00,
2013-07-25 13:44:00,75.7,66.4,29.69,North,-999,-999.0,-999.0,73,-99.99,,,-99.99,meteohub,2013-07-25 17:44:00,
2013-07-25 13:50:00,75.6,66.4,29.66,North,-999,-999.0,-999.0,73,-99.99,,,-99.99,meteohub,2013-07-25 17:50:00,
2013-07-25 13:55:00,75.7,66.4,29.66,North,-999,-999.0,-999.0,73,-99.99,,,-99.99,meteohub,2013-07-25 17:55:00,
2013-07-25 14:00:00,75.7,66.4,29.66,North,-999,-999.0,-999.0,73,-99.99,,,-99.99,meteohub,2013-07-25 18:00:00,
2013-07-25 14:05:00,75.7,66.4,29.69,North,-999,-999.0,-999.0,73,-99.99,,,-99.99,meteohub,2013-07-25 18:05:00,
2013-07-25 14:10:00,75.7,66.4,29.69,North,-999,-999.0,-999.0,73,-99.99,,,-99.99,meteohub,2013-07-25 18:10:00,
2013-07-25 14:15:00,75.7,66.4,29.69,North,-999,-999.0,-999.0,73,-99.99,,,-99.99,meteohub,2013-07-25 18:15:00,
2013-07-25 14:20:00,75.7,66.4,29.66,North,-999,-999.0,-999.0,73,-99.99,,,-99.99,meteohub,2013-07-25 18:20:00,
2013-07-25 14:26:00,75.9,66.6,29.66,North,-999,-999.0,-999.0,73,-99.99,,,-99.99,meteohub,2013-07-25 18:26:00,
2013-07-25 14:31:00,76.1,66.7,29.66,North,-999,-999.0,-999.0,73,-99.99,,,-99.99,meteohub,2013-07-25 18:31:00,
2013-07-25 14:36:00,76.3,66.9,29.69,North,-999,-999.0,-999.0,73,-99.99,,,-99.99,meteohub,2013-07-25 18:36:00,
2013-07-25 14:41:00,76.1,66.7,29.69,North,-999,-999.0,-999.0,73,-99.99,,,-99.99,meteohub,2013-07-25 18:41:00,
2013-07-25 14:47:00,76.1,66.4,29.69,North,-999,-999.0,-999.0,72,-99.99,,,-99.99,meteohub,2013-07-25 18:47:00,
2013-07-25 14:52:00,76.3,66.9,29.69,North,-999,-999.0,-999.0,73,-99.99,,,-99.99,meteohub,2013-07-25 18:52:00,
2013-07-25 14:57:00,76.3,66.6,29.69,North,-999,-999.0,-999.0,72,-99.99,,,-99.99,meteohub,2013-07-25 18:57:00,
2013-07-25 15:02:00,76.3,66.9,29.69,North,-999,-999.0,-999.0,73,-99.99,,,-99.99,meteohub,2013-07-25 19:02:00,
2013-07-25 15:07:00,76.5,66.7,29.69,North,-999,-999.0,-999.0,72,-99.99,,,-99.99,meteohub,2013-07-25 19:07:00,
2013-07-25 15:12:00,76.5,66.7,29.69,North,-999,-999.0,-999.0,72,-99.99,,,-99.99,meteohub,2013-07-25 19:12:00,
2013-07-25 15:17:00,76.5,66.7,29.69,North,-999,-999.0,-999.0,72,-99.99,,,-99.99,meteohub,2013-07-25 19:17:00,
2013-07-25 15:22:00,76.5,66.7,29.69,North,-999,-999.0,-999.0,72,-99.99,,,-99.99,meteohub,2013-07-25 19:22:00,
2013-07-25 15:27:00,76.6,66.9,29.69,North,-999,-999.0,-999.0,72,-99.99,,,-99.99,meteohub,2013-07-25 19:27:00,
2013-07-25 15:32:00,76.3,66.6,29.69,North,-999,-999.0,-999.0,72,-99.99,,,-99.99,meteohub,2013-07-25 19:32:00,
2013-07-25 15:37:00,76.1,66.0,29.69,North,-999,-999.0,-999.0,71,-99.99,,,-99.99,meteohub,2013-07-25 19:37:00,
2013-07-25 15:43:00,75.9,66.2,29.69,North,-999,-999.0,-999.0,72,-99.99,,,-99.99,meteohub,2013-07-25 19:43:00,
2013-07-25 15:48:00,75.9,66.2,29.69,North,-999,-999.0,-999.0,72,-99.99,,,-99.99,meteohub,2013-07-25 19:48:00,
2013-07-25 15:53:00,75.9,66.2,29.69,North,-999,-999.0,-999.0,72,-99.99,,,-99.99,meteohub,2013-07-25 19:53:00,
2013-07-25 15:58:00,76.1,66.0,29.69,North,-999,-999.0,-999.0,71,-99.99,,,-99.99,meteohub,2013-07-25 19:58:00,
2013-07-25 16:03:00,76.3,66.6,29.69,North,-999,-999.0,-999.0,72,-99.99,,,-99.99,meteohub,2013-07-25 20:03:00,
2013-07-25 16:09:00,76.6,66.9,29.69,North,-999,-999.0,-999.0,72,-99.99,,,-99.99,meteohub,2013-07-25 20:09:00,
2013-07-25 16:14:00,76.8,67.1,29.69,North,-999,-999.0,-999.0,72,-99.99,,,-99.99,meteohub,2013-07-25 20:14:00,
2013-07-25 16:19:00,77.0,66.9,29.69,North,-999,-999.0,-999.0,71,-99.99,,,-99.99,meteohub,2013-07-25 20:19:00,
2013-07-25 16:24:00,76.8,66.2,29.69,North,-999,-999.0,-999.0,70,-99.99,,,-99.99,meteohub,2013-07-25 20:24:00,
2013-07-25 16:29:00,76.8,66.2,29.69,North,-999,-999.0,-999.0,70,-99.99,,,-99.99,meteohub,2013-07-25 20:29:00,
2013-07-25 16:34:00,76.8,66.2,29.69,North,-999,-999.0,-999.0,70,-99.99,,,-99.99,meteohub,2013-07-25 20:34:00,
2013-07-25 16:39:00,76.6,66.2,29.69,North,-999,-999.0,-999.0,70,-99.99,,,-99.99,meteohub,2013-07-25 20:39:00,
2013-07-25 16:45:00,76.6,66.2,29.69,North,-999,-999.0,-999.0,70,-99.99,,,-99.99,meteohub,2013-07-25 20:45:00,
2013-07-25 16:50:00,76.8,66.2,29.69,North,-999,-999.0,-999.0,70,-99.99,,,-99.99,meteohub,2013-07-25 20:50:00,
2013-07-25 16:55:00,77.2,65.8,29.69,North,-999,-999.0,-999.0,68,-99.99,,,-99.99,meteohub,2013-07-25 20:55:00,
2013-07-25 17:00:00,77.5,66.6,29.69,North,-999,-999.0,-999.0,69,-99.99,,,-99.99,meteohub,2013-07-25 21:00:00,
2013-07-25 17:05:00,77.5,66.6,29.69,North,-999,-999.0,-999.0,69,-99.99,,,-99.99,meteohub,2013-07-25 21:05:00,
2013-07-25 17:10:00,77.5,66.2,29.69,North,-999,-999.0,-999.0,68,-99.99,,,-99.99,meteohub,2013-07-25 21:10:00,
2013-07-25 17:16:00,77.9,66.6,29.69,North,-999,-999.0,-999.0,68,-99.99,,,-99.99,meteohub,2013-07-25 21:16:00,
2013-07-25 17:22:00,77.9,66.6,29.69,North,-999,-999.0,-999.0,68,-99.99,,,-99.99,meteohub,2013-07-25 21:22:00,
2013-07-25 17:27:00,77.9,66.6,29.69,North,-999,-999.0,-999.0,68,-99.99,,,-99.99,meteohub,2013-07-25 21:27:00,
2013-07-25 17:32:00,77.9,66.6,29.69,North,-999,-999.0,-999.0,68,-99.99,,,-99.99,meteohub,2013-07-25 21:32:00,
2013-07-25 17:37:00,77.5,66.2,29.69,North,-999,-999.0,-999.0,68,-99.99,,,-99.99,meteohub,2013-07-25 21:37:00,
2013-07-25 17:42:00,77.4,66.0,29.69,North,-999,-999.0,-999.0,68,-99.99,,,-99.99,meteohub,2013-07-25 21:42:00,
2013-07-25 17:47:00,77.0,65.7,29.69,North,-999,-999.0,-999.0,68,-99.99,,,-99.99,meteohub,2013-07-25 21:47:00,
2013-07-25 17:52:00,77.0,65.7,29.69,North,-999,-999.0,-999.0,68,-99.99,,,-99.99,meteohub,2013-07-25 21:52:00,
2013-07-25 17:57:00,77.0,66.0,29.69,North,-999,-999.0,-999.0,69,-99.99,,,-99.99,meteohub,2013-07-25 21:57:00,
2013-07-25 18:02:00,77.2,65.3,29.69,North,-999,-999.0,-999.0,67,-99.99,,,-99.99,meteohub,2013-07-25 22:02:00,
2013-07-25 18:07:00,77.4,65.5,29.69,North,-999,-999.0,-999.0,67,-99.99,,,-99.99,meteohub,2013-07-25 22:07:00,
2013-07-25 18:12:00,77.4,65.5,29.69,North,-999,-999.0,-999.0,67,-99.99,,,-99.99,meteohub,2013-07-25 22:12:00,
2013-07-25 18:17:00,77.2,65.3,29.69,North,-999,-999.0,-999.0,67,-99.99,,,-99.99,meteohub,2013-07-25 22:17:00,
2013-07-25 18:22:00,77.2,65.3,29.69,North,-999,-999.0,-999.0,67,-99.99,,,-99.99,meteohub,2013-07-25 22:22:00,
2013-07-25 18:27:00,77.0,65.1,29.69,North,-999,-999.0,-999.0,67,-99.99,,,-99.99,meteohub,2013-07-25 22:27:00,
2013-07-25 18:32:00,77.0,65.1,29.69,North,-999,-999.0,-999.0,67,-99.99,,,-99.99,meteohub,2013-07-25 22:32:00,
2013-07-25 18:37:00,77.0,65.7,29.69,North,-999,-999.0,-999.0,68,-99.99,,,-99.99,meteohub,2013-07-25 22:37:00,
2013-07-25 18:42:00,77.0,65.7,29.69,North,-999,-999.0,-999.0,68,-99.99,,,-99.99,meteohub,2013-07-25 22:42:00,
2013-07-25 18:47:00,76.8,65.5,29.69,North,-999,-999.0,-999.0,68,-99.99,,,-99.99,meteohub,2013-07-25 22:47:00,
2013-07-25 18:52:00,76.8,65.8,29.69,North,-999,-999.0,-999.0,69,-99.99,,,-99.99,meteohub,2013-07-25 22:52:00,
2013-07-25 18:57:00,76.8,65.8,29.69,North,-999,-999.0,-999.0,69,-99.99,,,-99.99,meteohub,2013-07-25 22:57:00,
2013-07-25 19:02:00,76.6,65.7,29.69,North,-999,-999.0,-999.0,69,-99.99,,,-99.99,meteohub,2013-07-25 23:02:00,
2013-07-25 19:07:00,76.3,65.8,29.69,North,-999,-999.0,-999.0,70,-99.99,,,-99.99,meteohub,2013-07-25 23:07:00,
2013-07-25 19:12:00,76.3,65.3,29.69,North,-999,-999.0,-999.0,69,-99.99,,,-99.99,meteohub,2013-07-25 23:12:00,
2013-07-25 19:18:00,76.1,65.1,29.69,North,-999,-999.0,-999.0,69,-99.99,,,-99.99,meteohub,2013-07-25 23:18:00,
2013-07-25 19:23:00,76.1,65.1,29.69,North,-999,-999.0,-999.0,69,-99.99,,,-99.99,meteohub,2013-07-25 23:23:00,
2013-07-25 19:28:00,75.9,64.9,29.69,North,-999,-999.0,-999.0,69,-99.99,,,-99.99,meteohub,2013-07-25 23:28:00,
2013-07-25 19:33:00,75.7,65.3,29.69,North,-999,-999.0,-999.0,70,-99.99,,,-99.99,meteohub,2013-07-25 23:33:00,
2013-07-25 19:38:00,75.7,65.3,29.69,North,-999,-999.0,-999.0,70,-99.99,,,-99.99,meteohub,2013-07-25 23:38:00,
2013-07-25 19:43:00,75.6,64.8,29.69,North,-999,-999.0,-999.0,69,-99.99,,,-99.99,meteohub,2013-07-25 23:43:00,
2013-07-25 19:48:00,75.4,64.9,29.72,North,-999,-999.0,-999.0,70,-99.99,,,-99.99,meteohub,2013-07-25 23:48:00,
2013-07-25 19:53:00,75.4,64.9,29.72,North,-999,-999.0,-999.0,70,-99.99,,,-99.99,meteohub,2013-07-25 23:53:00,
2013-07-25 19:59:00,75.2,65.1,29.72,North,-999,-999.0,-999.0,71,-99.99,,,-99.99,meteohub,2013-07-25 23:59:00,
2013-07-25 20:04:00,75.0,64.9,29.72,North,-999,-999.0,-999.0,71,-99.99,,,-99.99,meteohub,2013-07-26 00:04:00,
2013-07-25 20:09:00,74.8,64.8,29.72,North,-999,-999.0,-999.0,71,-99.99,,,-99.99,meteohub,2013-07-26 00:09:00,
2013-07-25 20:14:00,74.8,64.8,29.72,North,-999,-999.0,-999.0,71,-99.99,,,-99.99,meteohub,2013-07-26 00:14:00,
2013-07-25 20:20:00,74.7,64.6,29.72,North,-999,-999.0,-999.0,71,-99.99,,,-99.99,meteohub,2013-07-26 00:20:00,
2013-07-25 20:25:00,74.5,64.4,29.72,North,-999,-999.0,-999.0,71,-99.99,,,-99.99,meteohub,2013-07-26 00:25:00,
2013-07-25 20:30:00,74.3,64.2,29.72,North,-999,-999.0,-999.0,71,-99.99,,,-99.99,meteohub,2013-07-26 00:30:00,
2013-07-25 20:35:00,73.9,63.9,29.72,North,-999,-999.0,-999.0,71,-99.99,,,-99.99,meteohub,2013-07-26 00:35:00,
2013-07-25 20:40:00,73.8,63.7,29.72,North,-999,-999.0,-999.0,71,-99.99,,,-99.99,meteohub,2013-07-26 00:40:00,
2013-07-25 20:45:00,73.6,64.0,29.72,North,-999,-999.0,-999.0,72,-99.99,,,-99.99,meteohub,2013-07-26 00:45:00,
2013-07-25 20:51:00,73.4,63.9,29.72,North,-999,-999.0,-999.0,72,-99.99,,,-99.99,meteohub,2013-07-26 00:51:00,
2013-07-25 20:56:00,73.2,64.0,29.72,North,-999,-999.0,-999.0,73,-99.99,,,-99.99,meteohub,2013-07-26 00:56:00,
2013-07-25 21:01:00,73.2,64.0,29.72,North,-999,-999.0,-999.0,73,-99.99,,,-99.99,meteohub,2013-07-26 01:01:00,
2013-07-25 21:06:00,73.0,64.2,29.72,North,-999,-999.0,-999.0,74,-99.99,,,-99.99,meteohub,2013-07-26 01:06:00,
2013-07-25 21:12:00,72.9,64.0,29.72,North,-999,-999.0,-999.0,74,-99.99,,,-99.99,meteohub,2013-07-26 01:12:00,
2013-07-25 21:17:00,72.7,63.9,29.72,North,-999,-999.0,-999.0,74,-99.99,,,-99.99,meteohub,2013-07-26 01:17:00,
2013-07-25 21:22:00,72.7,64.2,29.72,North,-999,-999.0,-999.0,75,-99.99,,,-99.99,meteohub,2013-07-26 01:22:00,
2013-07-25 21:27:00,72.5,64.0,29.72,North,-999,-999.0,-999.0,75,-99.99,,,-99.99,meteohub,2013-07-26 01:27:00,
2013-07-25 21:32:00,72.3,64.4,29.72,North,-999,-999.0,-999.0,76,-99.99,,,-99.99,meteohub,2013-07-26 01:32:00,
2013-07-25 21:37:00,72.1,64.2,29.72,North,-999,-999.0,-999.0,76,-99.99,,,-99.99,meteohub,2013-07-26 01:37:00,
2013-07-25 21:42:00,72.0,64.0,29.72,North,-999,-999.0,-999.0,76,-99.99,,,-99.99,meteohub,2013-07-26 01:42:00,
2013-07-25 21:47:00,72.0,64.4,29.72,North,-999,-999.0,-999.0,77,-99.99,,,-99.99,meteohub,2013-07-26 01:47:00,
2013-07-25 21:52:00,71.8,64.2,29.72,North,-999,-999.0,-999.0,77,-99.99,,,-99.99,meteohub,2013-07-26 01:52:00,
2013-07-25 21:57:00,71.6,64.0,29.72,North,-999,-999.0,-999.0,77,-99.99,,,-99.99,meteohub,2013-07-26 01:57:00,
2013-07-25 22:02:00,71.6,64.4,29.72,North,-999,-999.0,-999.0,78,-99.99,,,-99.99,meteohub,2013-07-26 02:02:00,
2013-07-25 22:07:00,71.4,64.2,29.72,North,-999,-999.0,-999.0,78,-99.99,,,-99.99,meteohub,2013-07-26 02:07:00,
2013-07-25 22:12:00,71.2,64.4,29.72,North,-999,-999.0,-999.0,79,-99.99,,,-99.99,meteohub,2013-07-26 02:12:00,
2013-07-25 22:17:00,71.2,64.4,29.72,North,-999,-999.0,-999.0,79,-99.99,,,-99.99,meteohub,2013-07-26 02:17:00,
2013-07-25 22:22:00,71.1,64.2,29.72,North,-999,-999.0,-999.0,79,-99.99,,,-99.99,meteohub,2013-07-26 02:22:00,
2013-07-25 22:27:00,71.1,64.6,29.72,North,-999,-999.0,-999.0,80,-99.99,,,-99.99,meteohub,2013-07-26 02:27:00,
2013-07-25 22:33:00,70.9,64.4,29.72,North,-999,-999.0,-999.0,80,-99.99,,,-99.99,meteohub,2013-07-26 02:33:00,
2013-07-25 22:38:00,70.7,64.2,29.72,North,-999,-999.0,-999.0,80,-99.99,,,-99.99,meteohub,2013-07-26 02:38:00,
2013-07-25 22:43:00,70.7,64.2,29.72,North,-999,-999.0,-999.0,80,-99.99,,,-99.99,meteohub,2013-07-26 02:43:00,
2013-07-25 22:48:00,70.5,64.4,29.72,North,-999,-999.0,-999.0,81,-99.99,,,-99.99,meteohub,2013-07-26 02:48:00,
2013-07-25 22:53:00,70.5,64.4,29.72,North,-999,-999.0,-999.0,81,-99.99,,,-99.99,meteohub,2013-07-26 02:53:00,
2013-07-25 22:58:00,70.3,64.2,29.72,North,-999,-999.0,-999.0,81,-99.99,,,-99.99,meteohub,2013-07-26 02:58:00,
2013-07-25 23:03:00,70.2,64.0,29.72,North,-999,-999.0,-999.0,81,-99.99,,,-99.99,meteohub,2013-07-26 03:03:00,
2013-07-25 23:08:00,70.2,64.0,29.72,North,-999,-999.0,-999.0,81,-99.99,,,-99.99,meteohub,2013-07-26 03:08:00,
2013-07-25 23:14:00,70.0,63.9,29.72,North,-999,-999.0,-999.0,81,-99.99,,,-99.99,meteohub,2013-07-26 03:14:00,
2013-07-25 23:19:00,69.8,64.0,29.75,North,-999,-999.0,-999.0,82,-99.99,,,-99.99,meteohub,2013-07-26 03:19:00,
2013-07-25 23:24:00,69.6,64.2,29.75,North,-999,-999.0,-999.0,83,-99.99,,,-99.99,meteohub,2013-07-26 03:24:00,
2013-07-25 23:29:00,69.6,64.2,29.75,North,-999,-999.0,-999.0,83,-99.99,,,-99.99,meteohub,2013-07-26 03:29:00,
2013-07-25 23:34:00,69.4,64.0,29.75,North,-999,-999.0,-999.0,83,-99.99,,,-99.99,meteohub,2013-07-26 03:34:00,
2013-07-25 23:39:00,69.4,64.4,29.75,North,-999,-999.0,-999.0,84,-99.99,,,-99.99,meteohub,2013-07-26 03:39:00,
2013-07-25 23:45:00,69.3,64.2,29.75,North,-999,-999.0,-999.0,84,-99.99,,,-99.99,meteohub,2013-07-26 03:45:00,
2013-07-25 23:50:00,69.1,64.0,29.75,North,-999,-999.0,-999.0,84,-99.99,,,-99.99,meteohub,2013-07-26 03:50:00,
2013-07-25 23:55:00,69.1,64.0,29.75,North,-999,-999.0,-999.0,84,-99.99,,,-99.99,meteohub,2013-07-26 03:55:00,